To NAV CANADA Home Page Login to a new session Search on AWWS site Feedback and Comments Disclaimer Vers la page française équivalente Tips FAQ What's new on the site To the Forecasts and Observations / NOTAM section To "File a Flight Plan" website Publications and other links Update of the User's profile FIC Telephone Numbers My Weather Data Folder Route Weather Data Regional Weather Data Local Weather Data To the Forecasts and Observations / NOTAM section
Request Generated 12/10/2016 at 16:30:45 UTC . Weather information available at that time is displayed.

METAR/TAF

PAULATUK/PAULATUK (NORA ALIQATCHIALUK RUBEN)/NT    

METAR CYPC 101600Z 29022KT 6SM BLSN SCT030 M20/M23 A3025 RMK BLSN2SC2
SLP247=
SPECI CYPC 101539Z 29020KT 6SM BLSN SCT030 M20/M23 A3026 RMK BLSN2SC2
SLP249=
METAR CYPC 101500Z 28019KT 10SM DRSN FEW040 M20/M23 A3027 RMK SC2
SLP252=
METAR CYPC 101400Z 28015KT 15SM DRSN FEW040 M20/M23 A3028 RMK SC2
-16.4/-20.4 SLP256=

TAF CYPC 101538Z 1016/1024 28016KT P6SM FEW040 TEMPO 1016/1024 5SM
-SN BKN040
RMK NXT FCST BY 101900Z=
Your time UTC time
Weather data provided by Environment Canada and NAV CANADA